Thursday, April 26, 2018, 5:32 AM EDT
Back to Local

KACK, Nantucket Memorial Airport

Location: Nantucket, MA, United States Lat: 41.25
Local Time: 5:32 AM EDT ( 9:32 GMT) Lon: -70.067
Time Zone: US/Eastern Elev: 49 ft

Show me the last for .
Show Decoded

2018-04-26 05:25 METAR KACK 260925Z AUTO 17008KT 1 1/4SM R24/4500VP6000FT RA BR OVC002 09/09
                 A2959 RMK AO2 RAB10 P0008 T00940094 $ =
2018-04-26 05:11 METAR KACK 260911Z AUTO 14006KT 3/4SM R24/3000V4000FT -RA BR VV002 09/09 A2959
                 RMK AO2 RAB10 P0000 T00890089 $ =
2018-04-26 04:53 METAR KACK 260853Z AUTO 13009KT 1 1/2SM R24/5000VP6000FT BR OVC003 09/09 A2960
                 RMK AO2 RAB0754E52 SLP022 P0006 60006 T00890089 56022 $ =
2018-04-26 04:30 METAR KACK 260830Z AUTO 14009KT 1SM R24/4000V5500FT RA BR VV003 09/09 A2960 RMK
                 AO2 RAB0754 P0005 T00940094 $ =
2018-04-26 03:53 METAR KACK 260753Z AUTO 12008KT 1/2SM R24/2600V3000FT FG VV002 09/09 A2960 RMK
                 AO2 SLP024 T00890089 $ =
2018-04-26 02:56 METAR KACK 260656Z AUTO 13011KT 1/2SM R24/2000V2400FT FG VV002 09/09 A2963 RMK
                 AO2 T00890089 $ =
2018-04-26 02:53 METAR KACK 260653Z AUTO 13010KT 1/4SM R24/1800V2200FT FG VV002 09/09 A2963 RMK
                 AO2 SLP033 T00890089 $ =
2018-04-26 01:53 METAR KACK 260553Z AUTO 13012KT 1/4SM R24/1600V1800FT FG VV002 09/09 A2966 RMK
                 AO2 RAE02 SLP044 P0000 60021 T00940094 10111 20094 58027 =
2018-04-26 01:17 METAR KACK 260517Z AUTO 14014KT 1/2SM R24/2000FT FG VV002 09/09 A2968 RMK AO2
                 RAE02 P0000 T00940094 =
2018-04-26 00:53 METAR KACK 260453Z AUTO 14016KT 1/2SM R24/2600V2800FT -RA FG VV002 09/09 A2970
                 RMK AO2 RAE36B52 SLP056 P0001 T00940094 401170089 =
2018-04-25 23:53 METAR KACK 260353Z AUTO 15017KT 3/4SM R24/3500V4000FT -RA BR VV002 10/10 A2972
                 RMK AO2 PK WND 15026/0329 SLP065 P0005 T01000100 =
2018-04-25 23:34 METAR KACK 260334Z AUTO 15020KT 1 1/4SM R24/5000VP6000FT -RA BR OVC002 10/10
                 A2972 RMK AO2 PK WND 15026/0329 P0004 T01000100 =
2018-04-25 23:23 METAR KACK 260323Z AUTO 15021KT 2SM -RA BR OVC002 10/10 A2972 RMK AO2 PK WND
                 15026/0323 P0003 T01000100 =
2018-04-25 22:53 METAR KACK 260253Z AUTO 15018G26KT 1SM R24/3500V5500FT RA BR VV002 10/10 A2974
                 RMK AO2 PK WND 16028/0213 RAE03B30 SLP071 P0002 60015 T01000100 58018 =
2018-04-25 22:36 METAR KACK 260236Z AUTO 15019G27KT 3/4SM R24/3000V4000FT -RA BR VV002 10/10
                 A2975 RMK AO2 PK WND 16028/0213 RAE03B30 P0000 T01000100 =
2018-04-25 21:53 METAR KACK 260153Z AUTO 16016KT 1 1/2SM R24/5500VP6000FT RA BR OVC003 10/10
                 A2976 RMK AO2 SLP077 P0004 T01000100 =
2018-04-25 21:38 METAR KACK 260138Z AUTO 15018G23KT 2SM -RA BR OVC002 10/10 A2977 RMK AO2 P0002
                 T01000100 =
2018-04-25 21:13 METAR KACK 260113Z AUTO 15015KT 1 1/4SM R24/4000V6000FT -RA BR OVC002 10/10
                 A2978 RMK AO2 P0001 T01000100 =
2018-04-25 21:04 METAR KACK 260104Z AUTO 15016KT 2 1/2SM R24/6000VP6000FT -RA BR BKN003 OVC008
                 11/11 A2978 RMK AO2 P0001 T01060106 =
2018-04-25 20:53 METAR KACK 260053Z 15017KT 5SM -RA BR BKN007 BKN013 OVC020 11/11 A2978 RMK AO2
                 SLP086 P0009 T01110111 =
2018-04-25 19:53 METAR KACK 252353Z 14016KT 3SM -RA BR SCT002 BKN007 OVC090 10/10 A2979 RMK AO2
                 SLP089 P0005 60022 T01000100 10106 20100 58015 =
2018-04-25 19:48 METAR KACK 252348Z 14019KT 3SM RA BR SCT002 BKN007 OVC090 10/10 A2979 RMK AO2
                 P0005 =
2018-04-25 18:53 METAR KACK 252253Z 15019G26KT 2 1/2SM -RA BR OVC003 10/10 A2981 RMK AO2 PK WND
                 15026/2226 RAB2157 SLP095 P0006 T01000100 =
2018-04-25 18:18 METAR KACK 252218Z 15018KT 2 1/2SM RA BR OVC004 10/10 A2983 RMK AO2 RAB2157
                 P0003 T01000100 =
2018-04-25 17:53 METAR KACK 252153Z 14019KT 4SM BR OVC004 10/10 A2983 RMK AO2 PK WND 13032/2101
                 RAE2055B20E39 SLP102 P0000 T01000100 =
2018-04-25 17:00 METAR KACK 252100Z 13025G32KT 4SM BR BKN004 OVC015 10/10 A2983 RMK AO2 PK WND
                 13032/2059 RAE2055 P0000 T01000100 =
2018-04-25 16:53 METAR KACK 252053Z 13023G36KT 2SM R24/6000VP6000FT -RA BR BKN004 OVC015 10/10
                 A2984 RMK AO2 PK WND 13036/2044 RAE1957B40 SLP104 P0001 60011 T01000100 55023 =
2018-04-25 16:51 METAR KACK 252051Z 13023G36KT 2SM R24/5500VP6000FT -RA BR BKN004 OVC015 10/10
                 A2984 RMK AO2 PK WND 13036/2044 RAE1957B40 P0001 =
2018-04-25 16:44 METAR KACK 252044Z 13026G36KT 2SM R24/4500VP6000FT -RA BR SCT007 OVC015 10/10
                 A2984 RMK AO2 PK WND 13036/2044 RAE1957B40 P0001 T01000100 =
2018-04-25 15:53 METAR KACK 251953Z 12020G28KT 4SM -RA BR BKN003 OVC025 11/11 A2986 RMK AO2 PK
                 WND 13030/1935 SLP113 P0002 T01060106 =
2018-04-25 14:53 METAR KACK 251853Z 13020G26KT 1 3/4SM R24/4500VP6000FT -RA BR BKN004 OVC014
                 10/10 A2991 RMK AO2 PK WND 13026/1848 SLP128 P0008 T01000100 =
2018-04-25 13:53 METAR KACK 251753Z 12018KT 4SM -RA BR BKN004 BKN040 OVC070 11/11 A2996 RMK AO2
                 SLP145 P0003 60010 T01060106 10111 20094 56035 =
2018-04-25 12:53 METAR KACK 251653Z 12018KT 4SM -RA BR BKN004 BKN049 OVC075 11/11 A2999 RMK AO2
                 PK WND 13026/1604 SLP155 P0003 T01060106 =
2018-04-25 12:44 METAR KACK 251644Z 13019KT 3SM -RA BR BKN004 BKN049 OVC075 11/11 A3000 RMK AO2
                 PK WND 13026/1604 P0003 T01060106 =
2018-04-25 11:53 METAR KACK 251553Z 12018KT 6SM -RA BR BKN038 OVC045 11/11 A3003 RMK AO2 SLP169
                 P0002 T01060106 =
2018-04-25 10:53 METAR KACK 251453Z 12016KT 8SM -RA OVC050 11/11 A3006 RMK AO2 SLP180 P0000 60002
                 T01060106 57023 =
2018-04-25 09:53 METAR KACK 251353Z 12017KT 8SM -RA OVC070 11/11 A3008 RMK AO2 SLP187 P0001
                 T01110111 =
2018-04-25 08:53 METAR KACK 251253Z 13015KT 8SM -RA FEW049 OVC080 10/10 A3011 RMK AO2 SLP195
                 P0001 T01000100 =
2018-04-25 07:53 METAR KACK 251153Z 13014KT 7SM -RA BKN055 OVC075 09/09 A3013 RMK AO2 SLP203
                 P0001 60001 70001 T00940094 10100 20089 56006 =
2018-04-25 06:53 METAR KACK 251053Z 13015KT 9SM -RA SCT055 OVC080 09/09 A3013 RMK AO2 RAB18
                 SLP204 P0000 T00940089 =
2018-04-25 05:53 METAR KACK 250953Z 12014KT 10SM SCT065 OVC085 10/08 A3013 RMK AO2 SLP204
                 T01000083 =

Support USWX by starting your Amazon purchase here.